Aérodrome :







RETROUVEZ-NOUS SUR...

 
LOGIN :

S'inscrire | Disclaimer

   EN    FR    IT 

 









Légende :    VFR   VFR Marginal   IFR   IFR Intensif   IFR Très Intensif
Visi : 
Plafond : 
>= 8 km
>= 3000ft
5 à 8 km
1000 à 3000 ft
1500m à 5 km
500 à 1000 ft
800 à 1500m
200 à 500 ft
< 800m
< 200 ft
Symboles :   Orages  Brouillard  Fortes neiges  Fortes précipitations  Vent > 20 kt






- Altitude de l'aérodrome : 38 ft
- Code IATA : YMH


CYMH - Mary's Harbour

DERNIER METAR :
  • 250000Z AUTO 25006KT 9SM FEW120 19/11 A3005 RMK SLP180 DENSITY ALT 400FT

METARs EXPIRÉS :
  • 242300Z AUTO 24006KT 9SM SCT096 SCT120 20/12 A3004 RMK SLP175 DENSITY ALT 500FT
  • 242200Z AUTO VRB05KT 9SM BKN086 BKN100 BKN120 20/11 A3004 RMK SLP174 DENSITY ALT 500FT
  • 242100Z AUTO 25008KT 210V280 9SM BKN110 BKN130 23/08 A3002 RMK SLP168 DENSITY ALT 900FT
  • 242000Z AUTO 28012G17KT 9SM FEW076 SCT130 24/07 A3003 RMK SLP171 DENSITY ALT 1000FT
  • 241952Z AUTO 30011G20KT 280V010 9SM FEW055 SCT110 SCT140 24/09 A3003 RMK SLP171 DENSITY ALT 1000FT

TAF TAF CYMH
Valide du 24 à 20h jusqu'au 25 à 03h UTC


241940Z 2420/2503 30012G22KT P6SM BKN080
TEMPO 2420/2503 P6SM -SHRA
BECMG 2423/2501 25008KT RMK FCST BASED ON AUTO OBS. NXT FCST BY 250900Z
FIR CZQX / Amérique du Nord



MET'MAP, la Météo Aéronautique d'un coup d'oeil ! - Copyright ORBIFLY Décembre 2007 - Disclaimer

ORBIFLY MET'MAP TEAM :

Programmation & Développement : Alexandra Zaïnal
Sur une idée originale de : Baudouin d'Aumeries
Soutien technique & logistique : Manuel Goepfert
Assistance : Marc-Olivier Méhu




SOURCES & CREDITS :

   NOAA